Pagrindinis puslapis
METAR-TAF:

METAR-TAF

Oro uostai :

White Mountain, Aliaska, Jungtinės Amerikos Valstijos

platuma: 64-41-21N, ilguma: 163-24-46W, Aukštis: 81 m

Dabartinis oras

Ataskaita buvo paskelbta 35 minutes, ne 20:56 UTC
Vėjas 3 kt nuo kintamojo kryptimis
Temperatūra 4°C
Drėgmė 81%
Slėgis 1001 hPa
Matomumas: 16.1 km
Giedras dangus

METAR: PAWM 212056Z AUTO VRB03KT 10SM CLR 04/01 A2956 RMK AO2 SLP015 T00390006 58000

Laikas: 13:31 (21:31 UTC)


TAF: trūkstamas

Orai ataskaitas ir orų prognozės (METAR, TAF).

turimą stotys yra geltonos ir raudonos taškus žemėlapyje.

Perkelti pele per norėdami pamatyti stoties vardą.

Tada spustelėkite, norėdami matyti oro stebėjimo ir prognozės.

Norėdami pakeisti žemėlapį: spustelėkite ant žalios mygtukų su juodo kryžiaus žemyn,; žalią mygtuką su brūkšneliu, jei norite nutolinti; arba žalių rodyklių gretimoms žemėlapius.


METAR-TAF: